Estherville, Iowa
Current Conditions -  °F | °C
As of 12:04 AM on Friday 19 Dec 2014 (Local Time) from KEST Reporting Station
Overcast Overcast  
Wind Chill: -9°   Ceiling: 1400
Heat Index: -4°   Visibility: 9mi
Dew Point: -6°   Wind: 8mph
Humidity: 85%   Direction: 170°S
Pressure: 30.22"   Gusts: NA
Location:  43.4°N, 94.84°W
Report Text: KEST 190604Z AUTO 17007KT 9SM OVC014 M04/M06 A3022 RMK AO2 T10391061
Loading
Personal Weather Stations






























Interactive Weather Map New forecast layout! Learn more

10-Day Weather Forecast

Advertisements
Track Severe Weather on mobile